SBRB

Plácido de Castro Airport

Rio Branco, Brazil
TAF SBRB 181000Z 1812/1912 01004KT 9999 SCT010 TX31/1818Z TN23/1908Z BECMG 1813/1815 34006KT 9999 BKN018 BECMG 1817/1818 SCT030 FEW035TCU PROB3 0 1820/1822 35005KT TS SCT030 FEW035CB BECMG 1901/1903 35005KT FEW020 RMK PFN
Issued Valid From Valid To
Jan-18 @ 10:00 UTC
(2 hours ago)
Jan-18 @ 12:00 UTC
(in 6 minutes)
Jan-19 @ 12:00 UTC
(in 24 hours)
Jan-18 @ 12:00 to Jan-18 @ 13:00
TAF SBRB 181000Z 1812/1912 01004KT 9999 SCT010 TX31/1818Z TN23/1908Z
Wind Visibility Clouds
10° at 4 knots 10,000+ meters
  • Scattered at 1,000' AGL
Becoming Jan-18 @ 13:00 to Jan-18 @ 17:00
BECMG 1813/1815 34006KT 9999 BKN018
Wind Visibility Clouds
340° at 6 knots 10,000+ meters
  • Broken at 1,800' AGL
Becoming Jan-18 @ 17:00 to Jan-19 @ 01:00
BECMG 1817/1818 SCT030 FEW035TCU
Wind Visibility Clouds
340° at 6 knots 10,000+ meters
  • Scattered at 3,000' AGL
  • Few at 3,500' AGL
Becoming Jan-19 @ 01:00 to Jan-19 @ 12:00
BECMG 1901/1903 35005KT FEW020 RMK PFN
Wind Visibility Clouds
350° at 5 knots 10,000+ meters
  • Few at 2,000' AGL
TAF SBRB 181000Z 1812/1912 01004KT 9999 SCT010 TX31/1818Z TN23/1908Z BECMG 1813/1815 34006KT 9999 BKN018 BECMG 1817/1818 SCT030 FEW035TCU PROB3 0 1820/1822 35005KT TS SCT030 FEW035CB BECMG 1901/1903 35005KT FEW020 RMK PFN
Issued Jan-18 @ 10:00 UTC
(2 hours ago)
Valid From Jan-18 @ 12:00 UTC
(in 6 minutes)
Valid To Jan-19 @ 12:00 UTC
(in 24 hours)
Jan-18 @ 12:00 - Jan-18 @ 13:00
Wind Visibility
10° at 4 knots 10,000+ meters
Clouds
  • Scattered at 1,000' AGL
Becoming Jan-18 @ 13:00 - Jan-18 @ 17:00
Wind Visibility
340° at 6 knots 10,000+ meters
Clouds
  • Broken at 1,800' AGL
Becoming Jan-18 @ 17:00 - Jan-19 @ 01:00
Wind Visibility
340° at 6 knots 10,000+ meters
Clouds
  • Scattered at 3,000' AGL
  • Few at 3,500' AGL
Becoming Jan-19 @ 01:00 - Jan-19 @ 12:00
Wind Visibility
350° at 5 knots 10,000+ meters
Clouds
  • Few at 2,000' AGL